sensor_id;sensor_type;location;lat;lon;timestamp;temperature;humidity
19947;DHT22;10135;50.702;7.276;2023-12-20T06:00:50;9.40;72.20
19947;DHT22;10135;50.702;7.276;2023-12-20T06:02:51;9.40;72.20
19947;DHT22;10135;50.702;7.276;2023-12-20T06:04:51;9.40;72.20
19947;DHT22;10135;50.702;7.276;2023-12-20T06:06:52;9.40;72.20
19947;DHT22;10135;50.702;7.276;2023-12-20T06:08:53;9.40;72.40
19947;DHT22;10135;50.702;7.276;2023-12-20T06:10:53;9.40;72.20
19947;DHT22;10135;50.702;7.276;2023-12-20T06:12:54;9.40;72.20
19947;DHT22;10135;50.702;7.276;2023-12-20T06:14:55;9.40;72.20
19947;DHT22;10135;50.702;7.276;2023-12-20T06:16:57;9.40;72.20
19947;DHT22;10135;50.702;7.276;2023-12-20T06:18:58;9.40;72.20
19947;DHT22;10135;50.702;7.276;2023-12-20T06:20:59;9.50;72.20
19947;DHT22;10135;50.702;7.276;2023-12-20T06:22:59;9.40;72.20
19947;DHT22;10135;50.702;7.276;2023-12-20T06:25:00;9.50;72.10
19947;DHT22;10135;50.702;7.276;2023-12-20T06:27:00;9.50;72.20
19947;DHT22;10135;50.702;7.276;2023-12-20T06:29:01;9.50;72.10
19947;DHT22;10135;50.702;7.276;2023-12-20T06:31:02;9.50;72.10
19947;DHT22;10135;50.702;7.276;2023-12-20T06:33:03;9.50;72.10
19947;DHT22;10135;50.702;7.276;2023-12-20T06:35:05;9.50;72.10
19947;DHT22;10135;50.702;7.276;2023-12-20T06:37:06;9.50;72.10
19947;DHT22;10135;50.702;7.276;2023-12-20T06:39:06;9.50;72.10
19947;DHT22;10135;50.702;7.276;2023-12-20T06:41:07;9.50;72.10
19947;DHT22;10135;50.702;7.276;2023-12-20T06:43:08;9.50;72.10
19947;DHT22;10135;50.702;7.276;2023-12-20T06:45:09;9.50;72.10
19947;DHT22;10135;50.702;7.276;2023-12-20T06:47:10;9.40;72.00
19947;DHT22;10135;50.702;7.276;2023-12-20T06:49:11;9.50;72.10
19947;DHT22;10135;50.702;7.276;2023-12-20T06:51:15;9.50;72.10
19947;DHT22;10135;50.702;7.276;2023-12-20T06:53:16;9.50;72.10
19947;DHT22;10135;50.702;7.276;2023-12-20T06:55:17;9.50;72.10
19947;DHT22;10135;50.702;7.276;2023-12-20T06:57:17;9.50;72.00
19947;DHT22;10135;50.702;7.276;2023-12-20T06:59:20;9.50;72.00
19947;DHT22;10135;50.702;7.276;2023-12-20T07:01:20;9.50;72.00
19947;DHT22;10135;50.702;7.276;2023-12-20T07:03:21;9.50;72.00
19947;DHT22;10135;50.702;7.276;2023-12-20T07:05:22;9.50;71.90
19947;DHT22;10135;50.702;7.276;2023-12-20T07:07:22;9.50;72.00
19947;DHT22;10135;50.702;7.276;2023-12-20T07:09:24;9.50;71.90
19947;DHT22;10135;50.702;7.276;2023-12-20T07:11:25;9.50;72.00
19947;DHT22;10135;50.702;7.276;2023-12-20T07:13:26;9.50;72.00
19947;DHT22;10135;50.702;7.276;2023-12-20T07:15:27;9.50;71.90
19947;DHT22;10135;50.702;7.276;2023-12-20T07:17:29;9.50;71.90
19947;DHT22;10135;50.702;7.276;2023-12-20T07:19:30;9.50;71.90
19947;DHT22;10135;50.702;7.276;2023-12-20T07:21:31;9.50;71.90
19947;DHT22;10135;50.702;7.276;2023-12-20T07:23:31;9.50;71.90
19947;DHT22;10135;50.702;7.276;2023-12-20T07:25:32;9.50;71.90
19947;DHT22;10135;50.702;7.276;2023-12-20T07:27:32;9.50;71.90
19947;DHT22;10135;50.702;7.276;2023-12-20T07:29:33;9.50;71.90
19947;DHT22;10135;50.702;7.276;2023-12-20T07:31:34;9.50;71.90
19947;DHT22;10135;50.702;7.276;2023-12-20T07:33:35;9.50;71.90
19947;DHT22;10135;50.702;7.276;2023-12-20T07:35:35;9.40;71.90
19947;DHT22;10135;50.702;7.276;2023-12-20T07:37:36;9.50;71.90
19947;DHT22;10135;50.702;7.276;2023-12-20T07:39:41;9.50;71.90
19947;DHT22;10135;50.702;7.276;2023-12-20T07:41:42;9.50;71.90
19947;DHT22;10135;50.702;7.276;2023-12-20T07:43:42;9.50;71.90
19947;DHT22;10135;50.702;7.276;2023-12-20T07:45:43;9.50;71.80
19947;DHT22;10135;50.702;7.276;2023-12-20T07:47:43;9.50;71.90
19947;DHT22;10135;50.702;7.276;2023-12-20T07:49:44;9.50;71.80
19947;DHT22;10135;50.702;7.276;2023-12-20T07:51:45;9.50;71.90
19947;DHT22;10135;50.702;7.276;2023-12-20T07:53:45;9.50;71.90
19947;DHT22;10135;50.702;7.276;2023-12-20T07:55:46;9.50;71.70
19947;DHT22;10135;50.702;7.276;2023-12-20T07:57:46;9.50;71.70
19947;DHT22;10135;50.702;7.276;2023-12-20T07:59:47;9.50;71.70
19947;DHT22;10135;50.702;7.276;2023-12-20T08:01:48;9.50;71.70
19947;DHT22;10135;50.702;7.276;2023-12-20T08:03:49;9.50;71.70
19947;DHT22;10135;50.702;7.276;2023-12-20T08:05:50;9.50;71.70
19947;DHT22;10135;50.702;7.276;2023-12-20T08:07:51;9.50;71.70
19947;DHT22;10135;50.702;7.276;2023-12-20T08:09:52;9.50;71.70
19947;DHT22;10135;50.702;7.276;2023-12-20T08:11:53;9.50;71.60
19947;DHT22;10135;50.702;7.276;2023-12-20T08:13:53;9.50;71.60
19947;DHT22;10135;50.702;7.276;2023-12-20T08:15:55;9.50;71.50
19947;DHT22;10135;50.702;7.276;2023-12-20T08:17:56;9.60;71.70
19947;DHT22;10135;50.702;7.276;2023-12-20T08:19:57;9.60;71.60
19947;DHT22;10135;50.702;7.276;2023-12-20T08:21:57;9.60;71.60
19947;DHT22;10135;50.702;7.276;2023-12-20T08:23:58;9.60;71.50
19947;DHT22;10135;50.702;7.276;2023-12-20T08:26:05;9.60;71.50
19947;DHT22;10135;50.702;7.276;2023-12-20T08:28:06;9.60;71.40
19947;DHT22;10135;50.702;7.276;2023-12-20T08:30:10;9.60;71.50
19947;DHT22;10135;50.702;7.276;2023-12-20T08:32:11;9.60;71.40
19947;DHT22;10135;50.702;7.276;2023-12-20T08:34:12;9.60;71.40
19947;DHT22;10135;50.702;7.276;2023-12-20T08:36:15;9.60;71.40
19947;DHT22;10135;50.702;7.276;2023-12-20T08:38:18;9.60;71.30
19947;DHT22;10135;50.702;7.276;2023-12-20T08:40:18;9.60;71.30
19947;DHT22;10135;50.702;7.276;2023-12-20T08:42:20;9.60;71.30
19947;DHT22;10135;50.702;7.276;2023-12-20T08:44:21;9.60;71.30
19947;DHT22;10135;50.702;7.276;2023-12-20T08:46:22;9.60;71.20
19947;DHT22;10135;50.702;7.276;2023-12-20T08:48:23;9.60;71.20
19947;DHT22;10135;50.702;7.276;2023-12-20T08:50:24;9.60;71.30
19947;DHT22;10135;50.702;7.276;2023-12-20T08:52:25;9.60;71.30
19947;DHT22;10135;50.702;7.276;2023-12-20T08:54:27;9.70;71.30
19947;DHT22;10135;50.702;7.276;2023-12-20T08:56:28;9.70;71.30
19947;DHT22;10135;50.702;7.276;2023-12-20T08:58:28;9.70;71.20
19947;DHT22;10135;50.702;7.276;2023-12-20T09:00:29;9.70;71.20
19947;DHT22;10135;50.702;7.276;2023-12-20T09:02:30;9.70;71.20
19947;DHT22;10135;50.702;7.276;2023-12-20T09:04:30;9.80;72.00
19947;DHT22;10135;50.702;7.276;2023-12-20T09:06:31;9.80;71.20
19947;DHT22;10135;50.702;7.276;2023-12-20T09:08:32;9.80;71.20
19947;DHT22;10135;50.702;7.276;2023-12-20T09:10:33;9.80;71.20
19947;DHT22;10135;50.702;7.276;2023-12-20T09:12:34;9.80;71.90
19947;DHT22;10135;50.702;7.276;2023-12-20T09:14:34;9.80;71.20
19947;DHT22;10135;50.702;7.276;2023-12-20T09:16:35;9.90;71.20
19947;DHT22;10135;50.702;7.276;2023-12-20T09:18:36;9.90;71.20
19947;DHT22;10135;50.702;7.276;2023-12-20T09:20:36;9.90;71.10
19947;DHT22;10135;50.702;7.276;2023-12-20T09:22:37;9.90;71.00
19947;DHT22;10135;50.702;7.276;2023-12-20T09:24:39;9.90;71.00
19947;DHT22;10135;50.702;7.276;2023-12-20T09:26:40;9.90;70.90
19947;DHT22;10135;50.702;7.276;2023-12-20T09:28:42;9.90;70.90
19947;DHT22;10135;50.702;7.276;2023-12-20T09:30:42;9.90;70.80
19947;DHT22;10135;50.702;7.276;2023-12-20T09:32:45;10.00;70.90
19947;DHT22;10135;50.702;7.276;2023-12-20T09:34:47;10.00;70.90
19947;DHT22;10135;50.702;7.276;2023-12-20T09:36:48;10.00;70.90
19947;DHT22;10135;50.702;7.276;2023-12-20T09:38:48;10.00;70.70
19947;DHT22;10135;50.702;7.276;2023-12-20T09:40:49;10.00;70.70
19947;DHT22;10135;50.702;7.276;2023-12-20T09:42:54;10.00;70.70
19947;DHT22;10135;50.702;7.276;2023-12-20T09:44:58;10.00;70.60
19947;DHT22;10135;50.702;7.276;2023-12-20T09:47:05;10.00;70.60
19947;DHT22;10135;50.702;7.276;2023-12-20T09:49:07;10.00;70.50
19947;DHT22;10135;50.702;7.276;2023-12-20T09:51:08;10.00;70.60
19947;DHT22;10135;50.702;7.276;2023-12-20T09:53:09;10.00;70.60
19947;DHT22;10135;50.702;7.276;2023-12-20T09:55:19;10.00;70.50
19947;DHT22;10135;50.702;7.276;2023-12-20T09:57:20;10.10;70.60
19947;DHT22;10135;50.702;7.276;2023-12-20T09:59:21;10.10;70.50
19947;DHT22;10135;50.702;7.276;2023-12-20T10:01:23;10.10;70.50
19947;DHT22;10135;50.702;7.276;2023-12-20T10:03:25;10.10;70.50
19947;DHT22;10135;50.702;7.276;2023-12-20T10:05:33;10.10;70.40
19947;DHT22;10135;50.702;7.276;2023-12-20T10:07:37;10.10;70.40
19947;DHT22;10135;50.702;7.276;2023-12-20T10:09:38;10.10;70.30
19947;DHT22;10135;50.702;7.276;2023-12-20T10:11:39;10.10;70.40
19947;DHT22;10135;50.702;7.276;2023-12-20T10:13:41;10.10;70.30
19947;DHT22;10135;50.702;7.276;2023-12-20T10:15:41;10.10;70.40
19947;DHT22;10135;50.702;7.276;2023-12-20T10:17:42;10.10;70.30
19947;DHT22;10135;50.702;7.276;2023-12-20T10:19:43;10.10;70.30
19947;DHT22;10135;50.702;7.276;2023-12-20T10:21:43;10.10;70.30
19947;DHT22;10135;50.702;7.276;2023-12-20T10:23:45;10.10;70.30
19947;DHT22;10135;50.702;7.276;2023-12-20T10:25:56;10.10;70.30
19947;DHT22;10135;50.702;7.276;2023-12-20T10:28:14;10.10;70.10
19947;DHT22;10135;50.702;7.276;2023-12-20T10:30:23;10.10;69.90
19947;DHT22;10135;50.702;7.276;2023-12-20T10:32:26;10.10;70.30
19947;DHT22;10135;50.702;7.276;2023-12-20T10:34:27;10.10;70.20
19947;DHT22;10135;50.702;7.276;2023-12-20T10:36:30;10.10;70.20
19947;DHT22;10135;50.702;7.276;2023-12-20T10:38:33;10.10;70.10
19947;DHT22;10135;50.702;7.276;2023-12-20T10:40:36;10.10;70.20
19947;DHT22;10135;50.702;7.276;2023-12-20T10:42:37;10.10;70.20
19947;DHT22;10135;50.702;7.276;2023-12-20T10:44:41;10.10;70.10
19947;DHT22;10135;50.702;7.276;2023-12-20T10:46:42;10.10;70.10
19947;DHT22;10135;50.702;7.276;2023-12-20T10:48:52;10.10;70.10
19947;DHT22;10135;50.702;7.276;2023-12-20T10:50:55;10.10;70.10
19947;DHT22;10135;50.702;7.276;2023-12-20T10:52:57;10.10;70.10
19947;DHT22;10135;50.702;7.276;2023-12-20T10:54:58;10.20;70.20
19947;DHT22;10135;50.702;7.276;2023-12-20T10:56:59;10.20;70.20
19947;DHT22;10135;50.702;7.276;2023-12-20T10:59:02;10.20;70.10
19947;DHT22;10135;50.702;7.276;2023-12-20T11:01:06;10.20;70.10
19947;DHT22;10135;50.702;7.276;2023-12-20T11:03:09;10.20;70.10
19947;DHT22;10135;50.702;7.276;2023-12-20T11:05:35;10.20;70.10
19947;DHT22;10135;50.702;7.276;2023-12-20T11:08:02;10.20;69.90
19947;DHT22;10135;50.702;7.276;2023-12-20T11:10:16;10.20;70.10
19947;DHT22;10135;50.702;7.276;2023-12-20T11:12:35;10.20;70.00
19947;DHT22;10135;50.702;7.276;2023-12-20T11:14:46;10.20;69.80
19947;DHT22;10135;50.702;7.276;2023-12-20T11:16:51;10.30;70.00
19947;DHT22;10135;50.702;7.276;2023-12-20T11:19:06;10.20;70.00
19947;DHT22;10135;50.702;7.276;2023-12-20T11:21:07;10.30;70.10
19947;DHT22;10135;50.702;7.276;2023-12-20T11:23:08;10.20;70.00
19947;DHT22;10135;50.702;7.276;2023-12-20T11:25:10;10.30;70.10
19947;DHT22;10135;50.702;7.276;2023-12-20T11:27:13;10.20;69.90
19947;DHT22;10135;50.702;7.276;2023-12-20T11:31:42;10.30;69.70
19947;DHT22;10135;50.702;7.276;2023-12-20T11:33:43;10.30;69.80
19947;DHT22;10135;50.702;7.276;2023-12-20T11:35:46;10.30;70.00
19947;DHT22;10135;50.702;7.276;2023-12-20T11:37:47;10.30;70.00
19947;DHT22;10135;50.702;7.276;2023-12-20T11:42:12;10.30;69.60
19947;DHT22;10135;50.702;7.276;2023-12-20T11:44:14;10.30;70.00
19947;DHT22;10135;50.702;7.276;2023-12-20T11:46:17;10.30;70.00
19947;DHT22;10135;50.702;7.276;2023-12-20T11:48:38;10.30;70.70
19947;DHT22;10135;50.702;7.276;2023-12-20T11:50:45;10.30;69.60
19947;DHT22;10135;50.702;7.276;2023-12-20T11:52:45;10.40;69.90
19947;DHT22;10135;50.702;7.276;2023-12-20T11:54:46;10.30;69.80
19947;DHT22;10135;50.702;7.276;2023-12-20T11:56:48;10.30;69.80
19947;DHT22;10135;50.702;7.276;2023-12-20T11:58:49;10.30;69.80
19947;DHT22;10135;50.702;7.276;2023-12-20T12:00:50;10.30;69.80
19947;DHT22;10135;50.702;7.276;2023-12-20T12:02:58;10.30;69.70
19947;DHT22;10135;50.702;7.276;2023-12-20T12:04:59;10.30;69.60
19947;DHT22;10135;50.702;7.276;2023-12-20T12:07:00;10.30;69.70
19947;DHT22;10135;50.702;7.276;2023-12-20T12:09:01;10.30;69.80
19947;DHT22;10135;50.702;7.276;2023-12-20T12:11:23;10.30;69.80
19947;DHT22;10135;50.702;7.276;2023-12-20T12:13:34;10.40;69.80
19947;DHT22;10135;50.702;7.276;2023-12-20T12:15:36;10.40;69.80
19947;DHT22;10135;50.702;7.276;2023-12-20T12:17:37;10.40;69.80
19947;DHT22;10135;50.702;7.276;2023-12-20T12:19:39;10.40;69.80
19947;DHT22;10135;50.702;7.276;2023-12-20T12:21:41;10.40;69.80
19947;DHT22;10135;50.702;7.276;2023-12-20T12:23:41;10.40;69.70
19947;DHT22;10135;50.702;7.276;2023-12-20T12:25:42;10.40;69.80
19947;DHT22;10135;50.702;7.276;2023-12-20T12:27:43;10.40;69.70
19947;DHT22;10135;50.702;7.276;2023-12-20T12:30:03;10.50;69.70
19947;DHT22;10135;50.702;7.276;2023-12-20T12:32:08;10.50;69.50
19947;DHT22;10135;50.702;7.276;2023-12-20T12:34:09;10.50;69.70
19947;DHT22;10135;50.702;7.276;2023-12-20T12:36:10;10.50;69.70
19947;DHT22;10135;50.702;7.276;2023-12-20T12:38:12;10.50;69.70
19947;DHT22;10135;50.702;7.276;2023-12-20T12:40:15;10.50;69.60
19947;DHT22;10135;50.702;7.276;2023-12-20T12:42:17;10.50;69.70
19947;DHT22;10135;50.702;7.276;2023-12-20T12:44:17;10.50;69.60
19947;DHT22;10135;50.702;7.276;2023-12-20T12:46:18;10.60;69.60
19947;DHT22;10135;50.702;7.276;2023-12-20T12:48:19;10.50;69.50
19947;DHT22;10135;50.702;7.276;2023-12-20T12:50:19;10.60;69.60
19947;DHT22;10135;50.702;7.276;2023-12-20T12:52:20;10.60;69.50
19947;DHT22;10135;50.702;7.276;2023-12-20T12:54:20;10.50;69.40
19947;DHT22;10135;50.702;7.276;2023-12-20T12:56:21;10.50;69.50
19947;DHT22;10135;50.702;7.276;2023-12-20T12:58:22;10.50;69.40
19947;DHT22;10135;50.702;7.276;2023-12-20T13:00:23;10.50;69.40
19947;DHT22;10135;50.702;7.276;2023-12-20T13:02:24;10.50;69.30
19947;DHT22;10135;50.702;7.276;2023-12-20T13:04:25;10.50;69.40
19947;DHT22;10135;50.702;7.276;2023-12-20T13:06:26;10.50;69.50
19947;DHT22;10135;50.702;7.276;2023-12-20T13:08:27;10.50;69.40
19947;DHT22;10135;50.702;7.276;2023-12-20T13:10:29;10.50;69.40
19947;DHT22;10135;50.702;7.276;2023-12-20T13:12:29;10.50;69.30
19947;DHT22;10135;50.702;7.276;2023-12-20T13:14:32;10.50;69.30
19947;DHT22;10135;50.702;7.276;2023-12-20T13:16:34;10.50;69.40
19947;DHT22;10135;50.702;7.276;2023-12-20T13:18:35;10.50;69.40
19947;DHT22;10135;50.702;7.276;2023-12-20T13:20:36;10.50;69.30
19947;DHT22;10135;50.702;7.276;2023-12-20T13:22:36;10.50;69.30
19947;DHT22;10135;50.702;7.276;2023-12-20T13:24:37;10.50;69.30
19947;DHT22;10135;50.702;7.276;2023-12-20T13:26:38;10.50;69.50
19947;DHT22;10135;50.702;7.276;2023-12-20T13:28:38;10.50;69.30
19947;DHT22;10135;50.702;7.276;2023-12-20T13:30:39;10.50;69.30
19947;DHT22;10135;50.702;7.276;2023-12-20T13:32:40;10.50;69.40
19947;DHT22;10135;50.702;7.276;2023-12-20T13:34:41;10.50;69.40
19947;DHT22;10135;50.702;7.276;2023-12-20T13:36:43;10.50;69.50
19947;DHT22;10135;50.702;7.276;2023-12-20T13:38:45;10.50;69.50
19947;DHT22;10135;50.702;7.276;2023-12-20T13:40:46;10.50;69.40
19947;DHT22;10135;50.702;7.276;2023-12-20T13:42:47;10.50;69.40
19947;DHT22;10135;50.702;7.276;2023-12-20T13:45:24;10.40;69.40
19947;DHT22;10135;50.702;7.276;2023-12-20T13:51:06;10.40;69.50
19947;DHT22;10135;50.702;7.276;2023-12-20T13:53:14;10.40;69.40
19947;DHT22;10135;50.702;7.276;2023-12-20T14:02:09;10.40;69.60
19947;DHT22;10135;50.702;7.276;2023-12-20T14:07:52;10.30;69.80
19947;DHT22;10135;50.702;7.276;2023-12-20T14:09:55;10.30;69.70
19947;DHT22;10135;50.702;7.276;2023-12-20T14:43:46;10.10;70.00
19947;DHT22;10135;50.702;7.276;2023-12-20T15:04:11;10.10;70.10
19947;DHT22;10135;50.702;7.276;2023-12-20T15:06:26;10.10;70.00
19947;DHT22;10135;50.702;7.276;2023-12-20T15:09:10;10.10;70.10
19947;DHT22;10135;50.702;7.276;2023-12-20T15:11:32;10.20;70.10
19947;DHT22;10135;50.702;7.276;2023-12-20T15:13:38;10.20;70.00
19947;DHT22;10135;50.702;7.276;2023-12-20T15:15:48;10.20;70.00
19947;DHT22;10135;50.702;7.276;2023-12-20T15:17:54;10.20;70.10
19947;DHT22;10135;50.702;7.276;2023-12-20T15:19:57;10.20;70.10
19947;DHT22;10135;50.702;7.276;2023-12-20T15:22:04;10.20;70.10
19947;DHT22;10135;50.702;7.276;2023-12-20T15:39:43;10.20;70.10
19947;DHT22;10135;50.702;7.276;2023-12-20T15:50:11;10.20;70.10
19947;DHT22;10135;50.702;7.276;2023-12-20T15:56:05;10.20;70.10
19947;DHT22;10135;50.702;7.276;2023-12-20T16:18:32;10.20;70.20
19947;DHT22;10135;50.702;7.276;2023-12-20T16:20:33;10.20;70.10
19947;DHT22;10135;50.702;7.276;2023-12-20T16:22:34;10.20;70.20
19947;DHT22;10135;50.702;7.276;2023-12-20T16:24:34;10.20;70.20
19947;DHT22;10135;50.702;7.276;2023-12-20T16:26:35;10.30;70.30
19947;DHT22;10135;50.702;7.276;2023-12-20T16:28:36;10.30;70.30
19947;DHT22;10135;50.702;7.276;2023-12-20T16:30:37;10.30;70.30
19947;DHT22;10135;50.702;7.276;2023-12-20T16:32:37;10.30;70.30
19947;DHT22;10135;50.702;7.276;2023-12-20T16:34:38;10.30;70.30
19947;DHT22;10135;50.702;7.276;2023-12-20T16:36:50;10.30;70.20
19947;DHT22;10135;50.702;7.276;2023-12-20T16:38:52;10.30;70.30
19947;DHT22;10135;50.702;7.276;2023-12-20T16:40:53;10.30;70.20
19947;DHT22;10135;50.702;7.276;2023-12-20T16:42:55;10.30;70.30
19947;DHT22;10135;50.702;7.276;2023-12-20T16:44:58;10.30;70.30
19947;DHT22;10135;50.702;7.276;2023-12-20T16:46:59;10.30;70.30
19947;DHT22;10135;50.702;7.276;2023-12-20T16:49:00;10.30;70.20
19947;DHT22;10135;50.702;7.276;2023-12-20T16:51:01;10.40;70.30
19947;DHT22;10135;50.702;7.276;2023-12-20T16:53:04;10.40;70.30
19947;DHT22;10135;50.702;7.276;2023-12-20T17:07:14;10.40;70.40
19947;DHT22;10135;50.702;7.276;2023-12-20T17:12:55;10.40;70.40
19947;DHT22;10135;50.702;7.276;2023-12-20T17:48:12;10.50;70.40
19947;DHT22;10135;50.702;7.276;2023-12-20T17:50:16;10.50;70.30
19947;DHT22;10135;50.702;7.276;2023-12-20T17:52:17;10.50;70.30
19947;DHT22;10135;50.702;7.276;2023-12-20T17:54:18;10.50;70.30
19947;DHT22;10135;50.702;7.276;2023-12-20T17:56:21;10.50;70.30
19947;DHT22;10135;50.702;7.276;2023-12-20T17:58:22;10.50;70.30
19947;DHT22;10135;50.702;7.276;2023-12-20T18:00:28;10.50;70.20
19947;DHT22;10135;50.702;7.276;2023-12-20T18:02:31;10.60;70.30
19947;DHT22;10135;50.702;7.276;2023-12-20T18:04:32;10.50;70.20
19947;DHT22;10135;50.702;7.276;2023-12-20T18:06:32;10.60;70.30
19947;DHT22;10135;50.702;7.276;2023-12-20T18:08:36;10.60;70.20
19947;DHT22;10135;50.702;7.276;2023-12-20T18:10:46;10.60;70.20
19947;DHT22;10135;50.702;7.276;2023-12-20T18:12:49;10.60;70.20
19947;DHT22;10135;50.702;7.276;2023-12-20T18:14:49;10.60;70.20
19947;DHT22;10135;50.702;7.276;2023-12-20T18:16:52;10.60;70.20
19947;DHT22;10135;50.702;7.276;2023-12-20T18:18:53;10.60;70.20
19947;DHT22;10135;50.702;7.276;2023-12-20T18:20:54;10.60;70.20
19947;DHT22;10135;50.702;7.276;2023-12-20T18:22:54;10.70;70.90
19947;DHT22;10135;50.702;7.276;2023-12-20T18:24:55;10.70;70.20
19947;DHT22;10135;50.702;7.276;2023-12-20T18:26:56;10.70;70.20
19947;DHT22;10135;50.702;7.276;2023-12-20T18:28:57;10.70;70.20
19947;DHT22;10135;50.702;7.276;2023-12-20T18:30:57;10.70;70.20
19947;DHT22;10135;50.702;7.276;2023-12-20T18:32:58;10.70;70.10
19947;DHT22;10135;50.702;7.276;2023-12-20T18:34:59;10.70;70.20
19947;DHT22;10135;50.702;7.276;2023-12-20T18:37:00;10.70;70.10
19947;DHT22;10135;50.702;7.276;2023-12-20T18:39:01;10.70;70.00
19947;DHT22;10135;50.702;7.276;2023-12-20T18:41:01;10.70;70.10
19947;DHT22;10135;50.702;7.276;2023-12-20T18:43:02;10.70;70.10
19947;DHT22;10135;50.702;7.276;2023-12-20T18:45:04;10.70;70.00
19947;DHT22;10135;50.702;7.276;2023-12-20T18:47:05;10.70;70.00
19947;DHT22;10135;50.702;7.276;2023-12-20T18:49:05;10.70;70.00
19947;DHT22;10135;50.702;7.276;2023-12-20T18:51:09;10.70;70.00
19947;DHT22;10135;50.702;7.276;2023-12-20T18:53:09;10.70;70.00
19947;DHT22;10135;50.702;7.276;2023-12-20T18:55:10;10.70;70.00
19947;DHT22;10135;50.702;7.276;2023-12-20T18:57:11;10.70;69.90
19947;DHT22;10135;50.702;7.276;2023-12-20T18:59:11;10.70;70.00
19947;DHT22;10135;50.702;7.276;2023-12-20T19:01:13;10.70;70.00
19947;DHT22;10135;50.702;7.276;2023-12-20T19:03:14;10.80;70.00
19947;DHT22;10135;50.702;7.276;2023-12-20T19:05:15;10.70;69.90
19947;DHT22;10135;50.702;7.276;2023-12-20T19:07:15;10.80;70.00
19947;DHT22;10135;50.702;7.276;2023-12-20T19:09:16;10.80;69.90
19947;DHT22;10135;50.702;7.276;2023-12-20T19:11:16;10.80;70.00
19947;DHT22;10135;50.702;7.276;2023-12-20T19:13:18;10.80;69.90
19947;DHT22;10135;50.702;7.276;2023-12-20T19:15:18;10.80;69.90
19947;DHT22;10135;50.702;7.276;2023-12-20T19:17:19;10.80;69.90
19947;DHT22;10135;50.702;7.276;2023-12-20T19:19:20;10.80;69.90
19947;DHT22;10135;50.702;7.276;2023-12-20T19:21:21;10.80;69.90
19947;DHT22;10135;50.702;7.276;2023-12-20T19:23:22;10.80;69.80
19947;DHT22;10135;50.702;7.276;2023-12-20T19:25:22;10.80;69.80
19947;DHT22;10135;50.702;7.276;2023-12-20T19:27:23;10.90;69.90
19947;DHT22;10135;50.702;7.276;2023-12-20T19:29:24;10.80;69.80
19947;DHT22;10135;50.702;7.276;2023-12-20T19:31:25;10.90;69.80
19947;DHT22;10135;50.702;7.276;2023-12-20T19:33:26;10.90;69.90
19947;DHT22;10135;50.702;7.276;2023-12-20T19:35:26;10.90;69.80
19947;DHT22;10135;50.702;7.276;2023-12-20T19:37:27;10.90;69.80
19947;DHT22;10135;50.702;7.276;2023-12-20T19:39:27;10.90;69.80
19947;DHT22;10135;50.702;7.276;2023-12-20T19:41:28;10.90;69.80
19947;DHT22;10135;50.702;7.276;2023-12-20T19:43:29;10.90;69.80
19947;DHT22;10135;50.702;7.276;2023-12-20T19:45:32;10.90;69.80
19947;DHT22;10135;50.702;7.276;2023-12-20T19:47:33;10.90;69.80
19947;DHT22;10135;50.702;7.276;2023-12-20T19:49:34;10.90;69.80
19947;DHT22;10135;50.702;7.276;2023-12-20T19:51:34;11.00;69.80
19947;DHT22;10135;50.702;7.276;2023-12-20T19:53:35;11.00;69.70
19947;DHT22;10135;50.702;7.276;2023-12-20T19:55:36;11.00;69.70
19947;DHT22;10135;50.702;7.276;2023-12-20T19:57:36;11.00;69.70
19947;DHT22;10135;50.702;7.276;2023-12-20T19:59:37;11.00;69.80
19947;DHT22;10135;50.702;7.276;2023-12-20T20:01:38;11.00;69.60
19947;DHT22;10135;50.702;7.276;2023-12-20T20:03:43;11.00;69.70
19947;DHT22;10135;50.702;7.276;2023-12-20T20:05:44;11.00;69.60
19947;DHT22;10135;50.702;7.276;2023-12-20T20:07:44;11.00;69.60
19947;DHT22;10135;50.702;7.276;2023-12-20T20:09:48;11.00;69.60
19947;DHT22;10135;50.702;7.276;2023-12-20T20:11:50;11.00;69.60
19947;DHT22;10135;50.702;7.276;2023-12-20T20:13:50;11.00;69.60
19947;DHT22;10135;50.702;7.276;2023-12-20T20:15:52;11.00;69.60
19947;DHT22;10135;50.702;7.276;2023-12-20T20:17:54;11.10;69.60
19947;DHT22;10135;50.702;7.276;2023-12-20T20:19:54;11.10;69.60
19947;DHT22;10135;50.702;7.276;2023-12-20T20:21:55;11.10;69.60
19947;DHT22;10135;50.702;7.276;2023-12-20T20:23:56;11.10;69.60
19947;DHT22;10135;50.702;7.276;2023-12-20T20:25:56;11.10;69.60
19947;DHT22;10135;50.702;7.276;2023-12-20T20:27:57;11.10;69.60
19947;DHT22;10135;50.702;7.276;2023-12-20T20:29:58;11.10;69.60
19947;DHT22;10135;50.702;7.276;2023-12-20T20:31:58;11.10;69.50
19947;DHT22;10135;50.702;7.276;2023-12-20T20:33:59;11.10;69.50
19947;DHT22;10135;50.702;7.276;2023-12-20T20:36:00;11.10;69.60
19947;DHT22;10135;50.702;7.276;2023-12-20T20:38:04;11.20;69.60
19947;DHT22;10135;50.702;7.276;2023-12-20T20:40:10;11.10;69.60
19947;DHT22;10135;50.702;7.276;2023-12-20T20:42:12;11.20;69.50
19947;DHT22;10135;50.702;7.276;2023-12-20T20:44:12;11.20;69.50
19947;DHT22;10135;50.702;7.276;2023-12-20T20:46:13;11.20;69.50
19947;DHT22;10135;50.702;7.276;2023-12-20T20:48:14;11.20;69.50
19947;DHT22;10135;50.702;7.276;2023-12-20T20:50:14;11.20;69.50
19947;DHT22;10135;50.702;7.276;2023-12-20T20:52:15;11.20;69.50
19947;DHT22;10135;50.702;7.276;2023-12-20T20:54:17;11.20;69.50
19947;DHT22;10135;50.702;7.276;2023-12-20T20:56:19;11.20;69.60
19947;DHT22;10135;50.702;7.276;2023-12-20T20:58:19;11.20;69.40
19947;DHT22;10135;50.702;7.276;2023-12-20T21:00:20;11.30;69.50
19947;DHT22;10135;50.702;7.276;2023-12-20T21:02:21;11.30;69.50
19947;DHT22;10135;50.702;7.276;2023-12-20T21:04:21;11.30;69.40
19947;DHT22;10135;50.702;7.276;2023-12-20T21:06:22;11.30;69.40
19947;DHT22;10135;50.702;7.276;2023-12-20T21:08:23;11.30;69.40
19947;DHT22;10135;50.702;7.276;2023-12-20T21:10:23;11.30;69.40
19947;DHT22;10135;50.702;7.276;2023-12-20T21:12:24;11.40;69.50
19947;DHT22;10135;50.702;7.276;2023-12-20T21:14:28;11.30;69.40
19947;DHT22;10135;50.702;7.276;2023-12-20T21:16:29;11.40;69.40
19947;DHT22;10135;50.702;7.276;2023-12-20T21:18:29;11.40;69.30
19947;DHT22;10135;50.702;7.276;2023-12-20T21:20:30;11.40;69.50
19947;DHT22;10135;50.702;7.276;2023-12-20T21:22:31;11.40;69.40
19947;DHT22;10135;50.702;7.276;2023-12-20T21:24:31;11.40;69.40
19947;DHT22;10135;50.702;7.276;2023-12-20T21:26:32;11.40;69.30
19947;DHT22;10135;50.702;7.276;2023-12-20T21:28:32;11.40;69.40
19947;DHT22;10135;50.702;7.276;2023-12-20T21:30:35;11.40;69.30
19947;DHT22;10135;50.702;7.276;2023-12-20T21:32:37;11.50;69.40
19947;DHT22;10135;50.702;7.276;2023-12-20T21:34:39;11.50;69.50
19947;DHT22;10135;50.702;7.276;2023-12-20T21:36:39;11.50;69.40
19947;DHT22;10135;50.702;7.276;2023-12-20T21:38:43;11.50;69.40
19947;DHT22;10135;50.702;7.276;2023-12-20T21:40:44;11.50;69.30
19947;DHT22;10135;50.702;7.276;2023-12-20T21:42:44;11.50;69.30